sensor_id;sensor_type;location;lat;lon;timestamp;noise_LAeq;noise_LA_min;noise_LA_max;noise_LA01;noise_LA95
78074;Laerm;67283;50.960;13.856;2023-12-20T00:00:15;49.87;40.64;61.32;;
78074;Laerm;67283;50.960;13.856;2023-12-20T00:02:41;50.48;40.92;61.15;;
78074;Laerm;67283;50.960;13.856;2023-12-20T00:05:10;51.21;40.34;62.06;;
78074;Laerm;67283;50.960;13.856;2023-12-20T00:07:35;50.56;39.01;63.45;;
78074;Laerm;67283;50.960;13.856;2023-12-20T00:10:00;48.56;39.01;60.71;;
78074;Laerm;67283;50.960;13.856;2023-12-20T00:12:26;47.06;38.86;62.21;;
78074;Laerm;67283;50.960;13.856;2023-12-20T00:14:51;46.92;39.19;60.62;;
78074;Laerm;67283;50.960;13.856;2023-12-20T00:17:17;47.41;39.27;60.70;;
78074;Laerm;67283;50.960;13.856;2023-12-20T00:19:42;64.19;38.65;83.63;;
78074;Laerm;67283;50.960;13.856;2023-12-20T00:22:07;62.91;39.07;78.90;;
78074;Laerm;67283;50.960;13.856;2023-12-20T00:24:33;43.80;38.75;58.70;;
78074;Laerm;67283;50.960;13.856;2023-12-20T00:26:58;43.48;38.56;63.98;;
78074;Laerm;67283;50.960;13.856;2023-12-20T00:29:24;41.89;38.13;59.62;;
78074;Laerm;67283;50.960;13.856;2023-12-20T00:31:49;40.49;38.07;52.92;;
78074;Laerm;67283;50.960;13.856;2023-12-20T00:34:14;40.35;38.44;54.18;;
78074;Laerm;67283;50.960;13.856;2023-12-20T00:36:40;40.03;38.09;58.96;;
78074;Laerm;67283;50.960;13.856;2023-12-20T00:39:05;39.58;38.07;46.92;;
78074;Laerm;67283;50.960;13.856;2023-12-20T00:41:32;54.25;38.42;70.92;;
78074;Laerm;67283;50.960;13.856;2023-12-20T00:43:57;42.23;39.68;53.36;;
78074;Laerm;67283;50.960;13.856;2023-12-20T00:46:22;41.85;39.21;53.36;;
78074;Laerm;67283;50.960;13.856;2023-12-20T00:48:48;41.92;38.68;55.99;;
78074;Laerm;67283;50.960;13.856;2023-12-20T00:51:13;42.60;38.55;55.55;;
78074;Laerm;67283;50.960;13.856;2023-12-20T00:53:39;41.79;37.87;54.71;;
78074;Laerm;67283;50.960;13.856;2023-12-20T00:56:04;40.73;37.71;52.42;;
78074;Laerm;67283;50.960;13.856;2023-12-20T00:58:29;39.74;37.53;52.23;;
78074;Laerm;67283;50.960;13.856;2023-12-20T01:00:55;39.14;37.43;53.70;;
78074;Laerm;67283;50.960;13.856;2023-12-20T01:03:20;38.58;37.47;41.90;;
78074;Laerm;67283;50.960;13.856;2023-12-20T01:05:46;38.60;37.43;46.44;;
78074;Laerm;67283;50.960;13.856;2023-12-20T01:08:11;38.60;37.47;41.59;;
78074;Laerm;67283;50.960;13.856;2023-12-20T01:10:37;39.67;37.52;53.67;;
78074;Laerm;67283;50.960;13.856;2023-12-20T01:13:03;38.43;37.32;41.61;;
78074;Laerm;67283;50.960;13.856;2023-12-20T01:15:28;38.40;37.35;42.59;;
78074;Laerm;67283;50.960;13.856;2023-12-20T01:17:54;60.26;37.38;77.90;;
78074;Laerm;67283;50.960;13.856;2023-12-20T01:20:19;40.74;37.26;54.29;;
78074;Laerm;67283;50.960;13.856;2023-12-20T01:22:45;38.51;37.29;55.72;;
78074;Laerm;67283;50.960;13.856;2023-12-20T01:25:11;38.38;37.24;43.56;;
78074;Laerm;67283;50.960;13.856;2023-12-20T01:27:36;38.58;37.17;41.01;;
78074;Laerm;67283;50.960;13.856;2023-12-20T01:30:01;55.55;37.16;73.98;;
78074;Laerm;67283;50.960;13.856;2023-12-20T01:32:27;40.90;37.10;53.74;;
78074;Laerm;67283;50.960;13.856;2023-12-20T01:34:52;54.53;37.37;70.49;;
78074;Laerm;67283;50.960;13.856;2023-12-20T01:37:18;38.67;37.40;54.37;;
78074;Laerm;67283;50.960;13.856;2023-12-20T01:39:43;38.53;37.31;42.15;;
78074;Laerm;67283;50.960;13.856;2023-12-20T01:42:09;38.68;37.20;47.73;;
78074;Laerm;67283;50.960;13.856;2023-12-20T01:44:34;38.45;37.45;41.40;;
78074;Laerm;67283;50.960;13.856;2023-12-20T01:46:59;38.71;37.09;44.04;;
78074;Laerm;67283;50.960;13.856;2023-12-20T01:49:25;39.29;37.80;47.94;;
78074;Laerm;67283;50.960;13.856;2023-12-20T01:51:50;38.47;37.36;41.53;;
78074;Laerm;67283;50.960;13.856;2023-12-20T01:54:16;38.98;37.48;45.80;;
78074;Laerm;67283;50.960;13.856;2023-12-20T01:56:43;54.73;37.47;72.94;;
78074;Laerm;67283;50.960;13.856;2023-12-20T01:59:08;38.98;37.73;55.19;;
78074;Laerm;67283;50.960;13.856;2023-12-20T02:01:34;38.85;37.63;42.12;;
78074;Laerm;67283;50.960;13.856;2023-12-20T02:04:00;39.00;37.67;42.03;;
78074;Laerm;67283;50.960;13.856;2023-12-20T02:06:28;39.27;37.73;42.72;;
78074;Laerm;67283;50.960;13.856;2023-12-20T02:08:54;53.95;37.83;72.14;;
78074;Laerm;67283;50.960;13.856;2023-12-20T02:11:20;39.08;37.53;42.40;;
78074;Laerm;67283;50.960;13.856;2023-12-20T02:13:46;38.94;37.52;45.81;;
78074;Laerm;67283;50.960;13.856;2023-12-20T02:16:11;38.91;37.57;45.14;;
78074;Laerm;67283;50.960;13.856;2023-12-20T02:18:37;39.13;37.66;42.21;;
78074;Laerm;67283;50.960;13.856;2023-12-20T02:21:04;39.38;37.73;54.52;;
78074;Laerm;67283;50.960;13.856;2023-12-20T02:23:29;54.05;37.73;70.40;;
78074;Laerm;67283;50.960;13.856;2023-12-20T02:25:55;42.42;38.36;50.50;;
78074;Laerm;67283;50.960;13.856;2023-12-20T02:28:20;53.69;38.46;69.22;;
78074;Laerm;67283;50.960;13.856;2023-12-20T02:30:47;39.62;37.66;42.80;;
78074;Laerm;67283;50.960;13.856;2023-12-20T02:33:14;39.67;37.75;47.89;;
78074;Laerm;67283;50.960;13.856;2023-12-20T02:35:40;39.54;37.61;50.02;;
78074;Laerm;67283;50.960;13.856;2023-12-20T02:38:05;39.58;37.79;52.44;;
78074;Laerm;67283;50.960;13.856;2023-12-20T02:40:31;60.44;38.10;77.82;;
78074;Laerm;67283;50.960;13.856;2023-12-20T02:42:57;53.90;37.56;69.00;;
78074;Laerm;67283;50.960;13.856;2023-12-20T02:45:22;39.14;37.69;50.52;;
78074;Laerm;67283;50.960;13.856;2023-12-20T02:47:47;39.64;38.08;51.23;;
78074;Laerm;67283;50.960;13.856;2023-12-20T02:50:13;40.11;38.21;48.22;;
78074;Laerm;67283;50.960;13.856;2023-12-20T02:52:38;39.15;37.94;43.18;;
78074;Laerm;67283;50.960;13.856;2023-12-20T02:55:04;39.25;37.85;41.79;;
78074;Laerm;67283;50.960;13.856;2023-12-20T02:57:29;38.98;37.47;41.53;;
78074;Laerm;67283;50.960;13.856;2023-12-20T02:59:55;38.98;37.88;46.71;;
78074;Laerm;67283;50.960;13.856;2023-12-20T03:02:20;38.99;37.67;41.73;;
78074;Laerm;67283;50.960;13.856;2023-12-20T03:04:45;58.85;38.11;74.70;;
78074;Laerm;67283;50.960;13.856;2023-12-20T03:07:11;40.14;37.68;48.95;;
78074;Laerm;67283;50.960;13.856;2023-12-20T03:09:37;38.87;37.56;43.15;;
78074;Laerm;67283;50.960;13.856;2023-12-20T03:12:02;38.95;37.73;42.76;;
78074;Laerm;67283;50.960;13.856;2023-12-20T03:14:28;39.08;37.73;43.57;;
78074;Laerm;67283;50.960;13.856;2023-12-20T03:16:53;39.38;37.92;42.85;;
78074;Laerm;67283;50.960;13.856;2023-12-20T03:19:19;39.55;38.28;43.62;;
78074;Laerm;67283;50.960;13.856;2023-12-20T03:21:44;54.99;38.03;70.14;;
78074;Laerm;67283;50.960;13.856;2023-12-20T03:24:10;54.18;37.87;72.25;;
78074;Laerm;67283;50.960;13.856;2023-12-20T03:26:35;55.11;38.27;72.26;;
78074;Laerm;67283;50.960;13.856;2023-12-20T03:29:00;40.63;38.17;45.70;;
78074;Laerm;67283;50.960;13.856;2023-12-20T03:31:26;52.58;38.35;67.82;;
78074;Laerm;67283;50.960;13.856;2023-12-20T03:33:51;40.05;38.35;46.44;;
78074;Laerm;67283;50.960;13.856;2023-12-20T03:36:18;57.91;38.10;74.45;;
78074;Laerm;67283;50.960;13.856;2023-12-20T03:38:44;58.74;38.08;71.24;;
78074;Laerm;67283;50.960;13.856;2023-12-20T03:41:09;57.21;38.03;72.03;;
78074;Laerm;67283;50.960;13.856;2023-12-20T03:43:35;54.02;38.69;69.96;;
78074;Laerm;67283;50.960;13.856;2023-12-20T03:46:00;61.41;39.08;74.52;;
78074;Laerm;67283;50.960;13.856;2023-12-20T03:48:25;54.89;38.30;71.35;;
78074;Laerm;67283;50.960;13.856;2023-12-20T03:50:51;54.67;37.96;72.16;;
78074;Laerm;67283;50.960;13.856;2023-12-20T03:53:16;39.45;38.07;43.36;;
78074;Laerm;67283;50.960;13.856;2023-12-20T03:55:42;39.82;37.94;48.37;;
78074;Laerm;67283;50.960;13.856;2023-12-20T03:58:07;48.87;37.57;66.65;;
78074;Laerm;67283;50.960;13.856;2023-12-20T04:00:33;38.87;37.59;41.39;;
78074;Laerm;67283;50.960;13.856;2023-12-20T04:02:58;38.67;37.43;48.34;;
78074;Laerm;67283;50.960;13.856;2023-12-20T04:05:23;59.58;37.63;75.07;;
78074;Laerm;67283;50.960;13.856;2023-12-20T04:07:49;58.49;37.83;74.67;;
78074;Laerm;67283;50.960;13.856;2023-12-20T04:10:15;59.75;38.05;71.37;;
78074;Laerm;67283;50.960;13.856;2023-12-20T04:12:41;58.19;38.32;71.49;;
78074;Laerm;67283;50.960;13.856;2023-12-20T04:15:06;48.33;38.08;62.65;;
78074;Laerm;67283;50.960;13.856;2023-12-20T04:17:34;59.80;37.87;74.32;;
78074;Laerm;67283;50.960;13.856;2023-12-20T04:20:00;60.36;38.23;73.02;;
78074;Laerm;67283;50.960;13.856;2023-12-20T04:22:25;60.83;38.10;74.83;;
78074;Laerm;67283;50.960;13.856;2023-12-20T04:24:50;60.84;39.10;73.12;;
78074;Laerm;67283;50.960;13.856;2023-12-20T04:27:16;59.67;38.06;73.56;;
78074;Laerm;67283;50.960;13.856;2023-12-20T04:29:41;61.15;38.00;75.67;;
78074;Laerm;67283;50.960;13.856;2023-12-20T04:32:07;63.08;39.93;76.86;;
78074;Laerm;67283;50.960;13.856;2023-12-20T04:34:32;63.73;38.22;80.48;;
78074;Laerm;67283;50.960;13.856;2023-12-20T04:36:57;62.23;38.38;73.11;;
78074;Laerm;67283;50.960;13.856;2023-12-20T04:39:23;61.95;38.43;74.57;;
78074;Laerm;67283;50.960;13.856;2023-12-20T04:41:48;61.02;38.69;74.10;;
78074;Laerm;67283;50.960;13.856;2023-12-20T04:44:15;64.48;38.74;80.28;;
78074;Laerm;67283;50.960;13.856;2023-12-20T04:46:40;61.39;38.27;75.11;;
78074;Laerm;67283;50.960;13.856;2023-12-20T04:49:06;63.14;39.22;77.57;;
78074;Laerm;67283;50.960;13.856;2023-12-20T04:51:34;57.29;37.92;72.45;;
78074;Laerm;67283;50.960;13.856;2023-12-20T04:53:59;61.24;38.16;74.41;;
78074;Laerm;67283;50.960;13.856;2023-12-20T04:56:25;60.06;38.28;74.03;;
78074;Laerm;67283;50.960;13.856;2023-12-20T04:58:50;64.18;38.77;79.29;;
78074;Laerm;67283;50.960;13.856;2023-12-20T05:01:16;54.60;38.37;72.03;;
78074;Laerm;67283;50.960;13.856;2023-12-20T05:03:42;65.52;38.95;79.30;;
78074;Laerm;67283;50.960;13.856;2023-12-20T05:06:07;62.26;38.38;79.78;;
78074;Laerm;67283;50.960;13.856;2023-12-20T05:08:33;61.73;39.29;73.80;;
78074;Laerm;67283;50.960;13.856;2023-12-20T05:10:58;58.41;38.55;75.46;;
78074;Laerm;67283;50.960;13.856;2023-12-20T05:13:23;61.95;38.80;75.71;;
78074;Laerm;67283;50.960;13.856;2023-12-20T05:15:49;63.45;39.19;73.65;;
78074;Laerm;67283;50.960;13.856;2023-12-20T05:18:14;64.24;39.08;75.79;;
78074;Laerm;67283;50.960;13.856;2023-12-20T05:20:40;58.44;38.69;71.11;;
78074;Laerm;67283;50.960;13.856;2023-12-20T05:23:05;58.27;38.75;71.05;;
78074;Laerm;67283;50.960;13.856;2023-12-20T05:25:31;67.06;38.88;78.40;;
78074;Laerm;67283;50.960;13.856;2023-12-20T05:27:56;62.55;39.61;74.02;;
78074;Laerm;67283;50.960;13.856;2023-12-20T05:30:22;64.48;40.44;74.73;;
78074;Laerm;67283;50.960;13.856;2023-12-20T05:32:47;64.21;39.05;76.31;;
78074;Laerm;67283;50.960;13.856;2023-12-20T05:35:13;61.20;40.39;73.32;;
78074;Laerm;67283;50.960;13.856;2023-12-20T05:37:38;66.79;40.89;80.60;;
78074;Laerm;67283;50.960;13.856;2023-12-20T05:40:04;65.08;38.19;81.57;;
78074;Laerm;67283;50.960;13.856;2023-12-20T05:42:29;63.53;38.51;74.86;;
78074;Laerm;67283;50.960;13.856;2023-12-20T05:44:55;63.46;38.91;77.07;;
78074;Laerm;67283;50.960;13.856;2023-12-20T05:47:20;62.47;38.91;73.35;;
78074;Laerm;67283;50.960;13.856;2023-12-20T05:49:46;64.81;39.05;76.45;;
78074;Laerm;67283;50.960;13.856;2023-12-20T05:52:11;61.31;40.03;74.64;;
78074;Laerm;67283;50.960;13.856;2023-12-20T05:54:36;66.76;39.88;80.82;;
78074;Laerm;67283;50.960;13.856;2023-12-20T05:57:02;59.48;38.09;75.67;;
78074;Laerm;67283;50.960;13.856;2023-12-20T05:59:27;61.81;37.98;75.21;;
78074;Laerm;67283;50.960;13.856;2023-12-20T06:01:53;60.90;37.73;75.69;;
78074;Laerm;67283;50.960;13.856;2023-12-20T06:04:18;64.55;38.36;76.36;;
78074;Laerm;67283;50.960;13.856;2023-12-20T06:06:44;62.04;37.83;78.97;;
78074;Laerm;67283;50.960;13.856;2023-12-20T06:09:10;62.03;38.81;74.18;;
78074;Laerm;67283;50.960;13.856;2023-12-20T06:11:35;63.75;39.82;78.92;;
78074;Laerm;67283;50.960;13.856;2023-12-20T06:14:00;62.54;37.83;75.26;;
78074;Laerm;67283;50.960;13.856;2023-12-20T06:16:26;63.28;39.80;74.48;;
78074;Laerm;67283;50.960;13.856;2023-12-20T06:18:51;64.38;38.69;78.63;;
78074;Laerm;67283;50.960;13.856;2023-12-20T06:21:17;64.76;41.14;77.93;;
78074;Laerm;67283;50.960;13.856;2023-12-20T06:23:43;62.12;38.52;75.58;;
78074;Laerm;67283;50.960;13.856;2023-12-20T06:26:08;64.80;42.60;74.97;;
78074;Laerm;67283;50.960;13.856;2023-12-20T06:28:34;64.48;39.42;76.09;;
78074;Laerm;67283;50.960;13.856;2023-12-20T06:30:59;65.41;38.43;75.72;;
78074;Laerm;67283;50.960;13.856;2023-12-20T06:33:25;60.96;38.16;73.08;;
78074;Laerm;67283;50.960;13.856;2023-12-20T06:35:51;63.38;38.34;74.28;;
78074;Laerm;67283;50.960;13.856;2023-12-20T06:38:17;64.05;37.94;76.82;;
78074;Laerm;67283;50.960;13.856;2023-12-20T06:40:43;64.43;38.35;79.34;;
78074;Laerm;67283;50.960;13.856;2023-12-20T06:43:08;64.79;37.81;75.40;;
78074;Laerm;67283;50.960;13.856;2023-12-20T06:45:34;54.33;37.41;70.82;;
78074;Laerm;67283;50.960;13.856;2023-12-20T06:47:59;63.41;37.83;74.14;;
78074;Laerm;67283;50.960;13.856;2023-12-20T06:50:25;61.91;37.72;76.38;;
78074;Laerm;67283;50.960;13.856;2023-12-20T06:52:50;66.40;38.69;82.97;;
78074;Laerm;67283;50.960;13.856;2023-12-20T06:55:16;61.48;37.87;77.31;;
78074;Laerm;67283;50.960;13.856;2023-12-20T06:57:42;62.61;38.79;75.01;;
78074;Laerm;67283;50.960;13.856;2023-12-20T07:00:08;57.70;37.44;70.65;;
78074;Laerm;67283;50.960;13.856;2023-12-20T07:02:33;65.14;38.07;76.91;;
78074;Laerm;67283;50.960;13.856;2023-12-20T07:04:59;63.90;38.06;78.37;;
78074;Laerm;67283;50.960;13.856;2023-12-20T07:07:24;60.35;37.68;72.64;;
78074;Laerm;67283;50.960;13.856;2023-12-20T07:09:50;59.58;37.62;72.52;;
78074;Laerm;67283;50.960;13.856;2023-12-20T07:12:15;65.43;44.90;79.67;;
78074;Laerm;67283;50.960;13.856;2023-12-20T07:14:41;58.34;37.59;70.11;;
78074;Laerm;67283;50.960;13.856;2023-12-20T07:17:06;63.30;37.90;79.50;;
78074;Laerm;67283;50.960;13.856;2023-12-20T07:19:37;61.61;38.72;73.32;;
78074;Laerm;67283;50.960;13.856;2023-12-20T07:22:03;63.92;38.48;77.41;;
78074;Laerm;67283;50.960;13.856;2023-12-20T07:24:29;56.46;37.21;74.11;;
78074;Laerm;67283;50.960;13.856;2023-12-20T07:26:54;61.16;37.80;73.13;;
78074;Laerm;67283;50.960;13.856;2023-12-20T07:29:19;60.63;37.78;73.14;;
78074;Laerm;67283;50.960;13.856;2023-12-20T07:31:45;56.77;38.31;71.58;;
78074;Laerm;67283;50.960;13.856;2023-12-20T07:34:10;63.79;40.26;74.62;;
78074;Laerm;67283;50.960;13.856;2023-12-20T07:36:36;58.08;37.40;73.97;;
78074;Laerm;67283;50.960;13.856;2023-12-20T07:39:01;58.22;37.52;73.33;;
78074;Laerm;67283;50.960;13.856;2023-12-20T07:41:26;58.95;37.75;72.68;;
78074;Laerm;67283;50.960;13.856;2023-12-20T07:43:52;58.17;37.62;70.93;;
78074;Laerm;67283;50.960;13.856;2023-12-20T07:46:18;60.73;37.94;73.91;;
78074;Laerm;67283;50.960;13.856;2023-12-20T07:48:47;65.94;42.59;80.50;;
78074;Laerm;67283;50.960;13.856;2023-12-20T07:51:13;63.27;37.53;77.33;;
78074;Laerm;67283;50.960;13.856;2023-12-20T07:53:38;63.01;37.66;77.35;;
78074;Laerm;67283;50.960;13.856;2023-12-20T07:56:13;58.60;37.69;71.69;;
78074;Laerm;67283;50.960;13.856;2023-12-20T07:58:38;57.75;37.55;71.91;;
78074;Laerm;67283;50.960;13.856;2023-12-20T08:01:03;64.77;37.91;81.00;;
78074;Laerm;67283;50.960;13.856;2023-12-20T08:03:29;57.02;37.50;73.04;;
78074;Laerm;67283;50.960;13.856;2023-12-20T08:05:54;62.08;38.14;73.18;;
78074;Laerm;67283;50.960;13.856;2023-12-20T08:08:20;61.34;39.57;71.59;;
78074;Laerm;67283;50.960;13.856;2023-12-20T08:10:45;60.25;38.35;73.31;;
78074;Laerm;67283;50.960;13.856;2023-12-20T08:13:10;65.68;40.13;82.38;;
78074;Laerm;67283;50.960;13.856;2023-12-20T08:15:36;62.48;38.06;73.26;;
78074;Laerm;67283;50.960;13.856;2023-12-20T08:18:02;57.89;37.62;73.25;;
78074;Laerm;67283;50.960;13.856;2023-12-20T08:20:28;54.92;38.26;69.38;;
78074;Laerm;67283;50.960;13.856;2023-12-20T08:22:53;65.28;44.44;81.03;;
78074;Laerm;67283;50.960;13.856;2023-12-20T08:25:18;60.61;39.91;71.61;;
78074;Laerm;67283;50.960;13.856;2023-12-20T08:27:44;58.31;37.97;72.44;;
78074;Laerm;67283;50.960;13.856;2023-12-20T08:30:09;59.75;37.71;73.57;;
78074;Laerm;67283;50.960;13.856;2023-12-20T08:32:35;64.23;42.02;72.84;;
78074;Laerm;67283;50.960;13.856;2023-12-20T08:35:00;50.88;37.62;67.58;;
78074;Laerm;67283;50.960;13.856;2023-12-20T08:37:26;64.30;38.27;78.16;;
78074;Laerm;67283;50.960;13.856;2023-12-20T08:39:51;59.34;38.18;72.06;;
78074;Laerm;67283;50.960;13.856;2023-12-20T08:42:17;61.26;41.71;73.03;;
78074;Laerm;67283;50.960;13.856;2023-12-20T08:44:42;58.71;38.03;72.86;;
78074;Laerm;67283;50.960;13.856;2023-12-20T08:47:07;60.97;40.45;71.14;;
78074;Laerm;67283;50.960;13.856;2023-12-20T08:49:33;57.74;38.36;71.05;;
78074;Laerm;67283;50.960;13.856;2023-12-20T08:51:58;55.45;37.54;72.86;;
78074;Laerm;67283;50.960;13.856;2023-12-20T08:54:24;59.12;38.61;71.79;;
78074;Laerm;67283;50.960;13.856;2023-12-20T08:56:49;65.10;39.86;73.97;;
78074;Laerm;67283;50.960;13.856;2023-12-20T08:59:15;59.80;38.68;70.47;;
78074;Laerm;67283;50.960;13.856;2023-12-20T09:01:40;58.31;38.69;71.43;;
78074;Laerm;67283;50.960;13.856;2023-12-20T09:04:05;61.08;39.48;74.85;;
78074;Laerm;67283;50.960;13.856;2023-12-20T09:06:31;56.75;38.50;69.44;;
78074;Laerm;67283;50.960;13.856;2023-12-20T09:08:57;56.28;38.82;70.67;;
78074;Laerm;67283;50.960;13.856;2023-12-20T09:11:22;60.82;39.07;76.72;;
78074;Laerm;67283;50.960;13.856;2023-12-20T09:13:48;62.57;38.03;75.56;;
78074;Laerm;67283;50.960;13.856;2023-12-20T09:16:13;59.23;37.86;70.93;;
78074;Laerm;67283;50.960;13.856;2023-12-20T09:18:41;61.88;37.74;77.09;;
78074;Laerm;67283;50.960;13.856;2023-12-20T09:21:06;60.97;38.10;77.52;;
78074;Laerm;67283;50.960;13.856;2023-12-20T09:23:31;60.93;38.04;72.60;;
78074;Laerm;67283;50.960;13.856;2023-12-20T09:25:57;62.54;38.78;73.58;;
78074;Laerm;67283;50.960;13.856;2023-12-20T09:28:22;61.60;38.63;76.04;;
78074;Laerm;67283;50.960;13.856;2023-12-20T09:30:47;63.84;38.50;82.09;;
78074;Laerm;67283;50.960;13.856;2023-12-20T09:33:13;62.65;39.20;73.14;;
78074;Laerm;67283;50.960;13.856;2023-12-20T09:35:39;61.92;41.87;71.98;;
78074;Laerm;67283;50.960;13.856;2023-12-20T09:38:04;55.37;38.76;68.80;;
78074;Laerm;67283;50.960;13.856;2023-12-20T09:40:30;58.08;40.55;77.82;;
78074;Laerm;67283;50.960;13.856;2023-12-20T09:42:57;68.52;40.02;90.28;;
78074;Laerm;67283;50.960;13.856;2023-12-20T09:45:23;65.22;44.05;82.69;;
78074;Laerm;67283;50.960;13.856;2023-12-20T09:47:52;66.90;39.97;83.82;;
78074;Laerm;67283;50.960;13.856;2023-12-20T09:50:19;66.65;39.33;81.34;;
78074;Laerm;67283;50.960;13.856;2023-12-20T09:52:47;61.17;40.10;80.23;;
78074;Laerm;67283;50.960;13.856;2023-12-20T09:55:14;64.60;39.74;89.12;;
78074;Laerm;67283;50.960;13.856;2023-12-20T09:57:40;70.46;40.06;94.39;;
78074;Laerm;67283;50.960;13.856;2023-12-20T10:00:06;71.01;41.06;95.65;;
78074;Laerm;67283;50.960;13.856;2023-12-20T10:02:32;62.25;40.91;70.92;;
78074;Laerm;67283;50.960;13.856;2023-12-20T10:04:57;62.00;39.74;78.82;;
78074;Laerm;67283;50.960;13.856;2023-12-20T10:07:23;64.42;39.53;87.56;;
78074;Laerm;67283;50.960;13.856;2023-12-20T10:09:48;62.22;39.83;73.36;;
78074;Laerm;67283;50.960;13.856;2023-12-20T10:12:14;54.97;38.51;68.60;;
78074;Laerm;67283;50.960;13.856;2023-12-20T10:14:39;61.99;42.26;72.71;;
78074;Laerm;67283;50.960;13.856;2023-12-20T10:17:05;57.66;39.55;68.79;;
78074;Laerm;67283;50.960;13.856;2023-12-20T10:19:31;59.89;41.30;71.64;;
78074;Laerm;67283;50.960;13.856;2023-12-20T10:21:57;63.06;39.22;79.53;;
78074;Laerm;67283;50.960;13.856;2023-12-20T10:24:22;62.44;40.13;71.43;;
78074;Laerm;67283;50.960;13.856;2023-12-20T10:26:48;62.85;41.72;73.23;;
78074;Laerm;67283;50.960;13.856;2023-12-20T10:29:26;65.77;45.65;80.35;;
78074;Laerm;67283;50.960;13.856;2023-12-20T10:31:51;56.32;39.88;69.32;;
78074;Laerm;67283;50.960;13.856;2023-12-20T10:34:19;58.46;39.19;71.08;;
78074;Laerm;67283;50.960;13.856;2023-12-20T10:36:44;59.71;38.37;71.34;;
78074;Laerm;67283;50.960;13.856;2023-12-20T10:39:09;67.33;40.29;85.72;;
78074;Laerm;67283;50.960;13.856;2023-12-20T10:41:36;61.08;40.57;71.30;;
78074;Laerm;67283;50.960;13.856;2023-12-20T10:44:06;56.53;40.40;66.92;;
78074;Laerm;67283;50.960;13.856;2023-12-20T10:46:32;60.40;40.03;72.96;;
78074;Laerm;67283;50.960;13.856;2023-12-20T10:49:04;61.01;43.45;80.06;;
78074;Laerm;67283;50.960;13.856;2023-12-20T10:51:30;64.67;39.07;81.23;;
78074;Laerm;67283;50.960;13.856;2023-12-20T10:53:56;61.79;39.50;75.68;;
78074;Laerm;67283;50.960;13.856;2023-12-20T10:56:22;56.42;38.41;70.46;;
78074;Laerm;67283;50.960;13.856;2023-12-20T10:58:48;60.01;39.17;72.60;;
78074;Laerm;67283;50.960;13.856;2023-12-20T11:01:15;62.66;39.15;75.95;;
78074;Laerm;67283;50.960;13.856;2023-12-20T11:03:43;61.12;43.00;71.88;;
78074;Laerm;67283;50.960;13.856;2023-12-20T11:08:47;64.05;39.59;78.39;;
78074;Laerm;67283;50.960;13.856;2023-12-20T11:11:24;62.72;40.34;76.81;;
78074;Laerm;67283;50.960;13.856;2023-12-20T11:13:55;61.56;38.29;71.44;;
78074;Laerm;67283;50.960;13.856;2023-12-20T11:16:22;57.80;38.74;69.63;;
78074;Laerm;67283;50.960;13.856;2023-12-20T11:18:47;62.44;41.01;74.58;;
78074;Laerm;67283;50.960;13.856;2023-12-20T11:21:15;52.88;38.73;70.17;;
78074;Laerm;67283;50.960;13.856;2023-12-20T11:23:41;61.02;40.75;75.93;;
78074;Laerm;67283;50.960;13.856;2023-12-20T11:26:07;59.78;40.23;70.55;;
78074;Laerm;67283;50.960;13.856;2023-12-20T11:28:32;56.26;38.17;69.48;;
78074;Laerm;67283;50.960;13.856;2023-12-20T11:30:58;57.35;38.46;72.82;;
78074;Laerm;67283;50.960;13.856;2023-12-20T11:33:26;57.27;38.90;70.08;;
78074;Laerm;67283;50.960;13.856;2023-12-20T11:35:52;58.84;38.80;71.70;;
78074;Laerm;67283;50.960;13.856;2023-12-20T11:38:20;59.66;39.74;70.91;;
78074;Laerm;67283;50.960;13.856;2023-12-20T11:40:47;60.57;39.97;74.00;;
78074;Laerm;67283;50.960;13.856;2023-12-20T11:43:13;59.39;38.26;72.46;;
78074;Laerm;67283;50.960;13.856;2023-12-20T11:45:53;59.74;40.59;73.15;;
78074;Laerm;67283;50.960;13.856;2023-12-20T11:48:18;55.08;39.65;68.17;;
78074;Laerm;67283;50.960;13.856;2023-12-20T11:50:44;59.88;39.15;73.78;;
78074;Laerm;67283;50.960;13.856;2023-12-20T11:53:10;61.74;42.70;77.36;;
78074;Laerm;67283;50.960;13.856;2023-12-20T11:55:35;65.50;41.01;81.46;;
78074;Laerm;67283;50.960;13.856;2023-12-20T11:58:01;59.08;41.41;73.41;;
78074;Laerm;67283;50.960;13.856;2023-12-20T12:00:27;62.01;40.90;77.34;;
78074;Laerm;67283;50.960;13.856;2023-12-20T12:02:56;60.31;40.46;74.86;;
78074;Laerm;67283;50.960;13.856;2023-12-20T12:05:21;62.61;40.12;77.82;;
78074;Laerm;67283;50.960;13.856;2023-12-20T12:07:47;59.75;40.14;72.51;;
78074;Laerm;67283;50.960;13.856;2023-12-20T12:10:12;58.39;39.90;72.32;;
78074;Laerm;67283;50.960;13.856;2023-12-20T12:12:38;58.90;40.03;71.01;;
78074;Laerm;67283;50.960;13.856;2023-12-20T12:15:04;59.41;40.57;70.39;;
78074;Laerm;67283;50.960;13.856;2023-12-20T12:17:29;63.43;40.16;77.76;;
78074;Laerm;67283;50.960;13.856;2023-12-20T12:20:01;59.21;40.78;70.08;;
78074;Laerm;67283;50.960;13.856;2023-12-20T12:22:27;58.79;39.89;74.58;;
78074;Laerm;67283;50.960;13.856;2023-12-20T12:24:52;61.40;41.39;72.74;;
78074;Laerm;67283;50.960;13.856;2023-12-20T12:27:18;60.87;40.57;72.84;;
78074;Laerm;67283;50.960;13.856;2023-12-20T12:30:00;61.54;40.15;76.54;;
78074;Laerm;67283;50.960;13.856;2023-12-20T12:32:25;64.59;39.50;80.32;;
78074;Laerm;67283;50.960;13.856;2023-12-20T12:34:51;61.62;41.09;79.46;;
78074;Laerm;67283;50.960;13.856;2023-12-20T12:37:16;60.19;39.86;71.81;;
78074;Laerm;67283;50.960;13.856;2023-12-20T12:39:41;64.52;41.31;79.96;;
78074;Laerm;67283;50.960;13.856;2023-12-20T12:42:07;58.63;41.34;73.65;;
78074;Laerm;67283;50.960;13.856;2023-12-20T12:44:32;64.03;40.79;79.29;;
78074;Laerm;67283;50.960;13.856;2023-12-20T12:46:58;60.22;40.50;70.74;;
78074;Laerm;67283;50.960;13.856;2023-12-20T12:49:23;59.48;42.00;70.32;;
78074;Laerm;67283;50.960;13.856;2023-12-20T12:51:48;63.39;41.95;77.47;;
78074;Laerm;67283;50.960;13.856;2023-12-20T12:54:14;57.57;40.74;73.21;;
78074;Laerm;67283;50.960;13.856;2023-12-20T12:56:41;59.84;41.80;70.64;;
78074;Laerm;67283;50.960;13.856;2023-12-20T12:59:07;62.27;42.55;75.11;;
78074;Laerm;67283;50.960;13.856;2023-12-20T13:01:32;58.75;39.63;70.92;;
78074;Laerm;67283;50.960;13.856;2023-12-20T13:03:57;59.07;39.62;72.05;;
78074;Laerm;67283;50.960;13.856;2023-12-20T13:06:23;63.48;40.22;72.72;;
78074;Laerm;67283;50.960;13.856;2023-12-20T13:08:48;59.36;41.02;73.71;;
78074;Laerm;67283;50.960;13.856;2023-12-20T13:11:14;60.21;41.26;69.23;;
78074;Laerm;67283;50.960;13.856;2023-12-20T13:13:39;57.27;41.36;70.58;;
78074;Laerm;67283;50.960;13.856;2023-12-20T13:16:05;57.84;38.99;70.21;;
78074;Laerm;67283;50.960;13.856;2023-12-20T13:18:30;56.05;38.99;70.28;;
78074;Laerm;67283;50.960;13.856;2023-12-20T13:20:56;59.17;39.72;72.21;;
78074;Laerm;67283;50.960;13.856;2023-12-20T13:23:21;62.94;39.90;75.21;;
78074;Laerm;67283;50.960;13.856;2023-12-20T13:25:47;60.82;38.94;72.43;;